Decoded Metar for KDEQ (DE QUEEN in AR, USA) (IATA:DEQ) | Meteo·Mobile Aviation Weather
aviador You're here:

KDEQ Decoded Metar

DE QUEEN in AR, USA
Report Time2019-10-21 07:21:00
UTC Time2019-10-21 07:26:40
Flight Rules unknown UNKNOWN
Wind290° at 10 kt
W.Decomp.*RWY 26: 9.0 kt HW 4.4 kt RCW
VisibilityN/A
Phenomena:thunderstorm
Clouds:N/A
Expected CloudBase > 800 ft AGL from Temp-Dew spread
CeilingNone
Temp18°C (ISA +4)
Dew Point16°C (88% RH)
AAT16.4°C
QNH1005 hPa
Density Alt1,296 ft
Elevation348 ft
Report Wrong Elevation
Raw Report
KDEQ 210721Z AUTO 29010KT TS 18/16 A2967 RMK AO2 LTG DSNT ALQDS
RAE0655B12 P0004 T01780161 PWINO $=

Extra information for KDEQ:More info

Metar Taf Metar & Taf Last 4 Metars F.Rules Stats Wind Profile Meteogram Temp Stats Airport Information Weather charts Add Link Nearby VenuesMetar ALERT Operation Metar Decoded Social comments

AIRNAV info for KDEQ